createdAt,value
2019-03-29T00:00:42.990Z,1005.86
2019-03-29T00:01:42.908Z,1005.86
2019-03-29T00:02:43.059Z,1005.89
2019-03-29T00:03:42.747Z,1005.88
2019-03-29T00:04:42.696Z,1005.88
2019-03-29T00:05:42.585Z,1005.87
2019-03-29T00:06:42.505Z,1005.81
2019-03-29T00:07:42.427Z,1005.82
2019-03-29T00:08:42.343Z,1005.79
2019-03-29T00:09:42.262Z,1005.76
2019-03-29T00:10:42.187Z,1005.78
2019-03-29T00:11:42.104Z,1005.77
2019-03-29T00:12:42.021Z,1005.79
2019-03-29T00:13:41.941Z,1005.77
2019-03-29T00:14:42.166Z,1005.78
2019-03-29T00:15:41.781Z,1005.79
2019-03-29T00:16:41.699Z,1005.76
2019-03-29T00:17:41.619Z,1005.75
2019-03-29T00:18:41.536Z,1005.77
2019-03-29T00:19:41.455Z,1005.78
2019-03-29T00:20:41.374Z,1005.74
2019-03-29T00:21:41.293Z,1005.76
2019-03-29T00:22:41.218Z,1005.76
2019-03-29T00:23:41.131Z,1005.78
2019-03-29T00:24:41.168Z,1005.72
2019-03-29T00:25:40.971Z,1005.75
2019-03-29T00:26:40.889Z,1005.72
2019-03-29T00:27:40.808Z,1005.71
2019-03-29T00:28:40.742Z,1005.70
2019-03-29T00:29:40.646Z,1005.68
2019-03-29T00:30:40.574Z,1005.71
2019-03-29T00:31:40.484Z,1005.74
2019-03-29T00:32:40.404Z,1005.75
2019-03-29T00:33:40.322Z,1005.75
2019-03-29T00:34:40.242Z,1005.75
2019-03-29T00:35:40.162Z,1005.76
2019-03-29T00:36:40.082Z,1005.75
2019-03-29T00:37:52.949Z,1005.74
2019-03-29T00:38:39.919Z,1005.73
2019-03-29T00:39:40.309Z,1005.76
2019-03-29T00:40:39.759Z,1005.79
2019-03-29T00:41:39.675Z,1005.75
2019-03-29T00:42:39.596Z,1005.75
2019-03-29T00:43:39.518Z,1005.75
2019-03-29T00:44:39.434Z,1005.72
2019-03-29T00:45:39.353Z,1005.72
2019-03-29T00:46:39.288Z,1005.71
2019-03-29T00:47:39.192Z,1005.68
2019-03-29T00:48:39.164Z,1005.73
2019-03-29T00:49:39.030Z,1005.71
2019-03-29T00:50:38.951Z,1005.74
2019-03-29T00:51:38.910Z,1005.71
2019-03-29T00:52:38.792Z,1005.72
2019-03-29T00:53:38.706Z,1005.62
2019-03-29T00:54:38.645Z,1005.63
2019-03-29T00:55:38.544Z,1005.61
2019-03-29T00:56:39.099Z,1005.58
2019-03-29T00:57:38.381Z,1005.59
2019-03-29T00:58:38.300Z,1005.59
2019-03-29T00:59:38.222Z,1005.60
2019-03-29T01:00:38.139Z,1005.53
2019-03-29T01:01:38.058Z,1005.55
2019-03-29T01:02:37.981Z,1005.60
2019-03-29T01:03:37.896Z,1005.56
2019-03-29T01:04:37.814Z,1005.58
2019-03-29T01:05:37.731Z,1005.55
2019-03-29T01:06:39.075Z,1005.53
2019-03-29T01:07:37.571Z,1005.55
2019-03-29T01:08:38.092Z,1005.49
2019-03-29T01:09:37.408Z,1005.49
2019-03-29T01:10:37.339Z,1005.48
2019-03-29T01:11:37.247Z,1005.45
2019-03-29T01:12:37.165Z,1005.47
2019-03-29T01:13:37.083Z,1005.47
2019-03-29T01:25:58.566Z,1005.42
2019-03-29T01:26:58.432Z,1005.38
2019-03-29T01:27:58.349Z,1005.47
2019-03-29T01:28:58.268Z,1005.46
2019-03-29T01:29:58.184Z,1005.47
2019-03-29T01:30:58.102Z,1005.44
2019-03-29T01:31:58.019Z,1005.43
2019-03-29T01:32:58.920Z,1005.38
2019-03-29T01:33:57.857Z,1005.38
2019-03-29T01:34:57.798Z,1005.38
2019-03-29T01:35:57.697Z,1005.40
2019-03-29T01:36:57.609Z,1005.40
2019-03-29T01:37:57.528Z,1005.39
2019-03-29T01:38:57.446Z,1005.39
2019-03-29T01:39:57.365Z,1005.37
2019-03-29T01:40:57.382Z,1005.36
2019-03-29T01:41:57.200Z,1005.34
2019-03-29T01:42:57.134Z,1005.31
2019-03-29T01:43:57.037Z,1005.33
2019-03-29T01:44:56.967Z,1005.28
2019-03-29T01:45:56.876Z,1005.29
2019-03-29T01:46:56.794Z,1005.27
2019-03-29T01:47:56.726Z,1005.23
2019-03-29T01:48:56.629Z,1005.30
2019-03-29T01:49:56.545Z,1005.31
2019-03-29T01:50:56.464Z,1005.34
2019-03-29T01:51:56.386Z,1005.30
2019-03-29T01:52:56.300Z,1005.26
2019-03-29T01:53:56.221Z,1005.28
2019-03-29T01:54:57.013Z,1005.27
2019-03-29T01:55:56.058Z,1005.30
2019-03-29T01:56:55.974Z,1005.29
2019-03-29T01:57:55.903Z,1005.25
2019-03-29T01:58:55.810Z,1005.26
2019-03-29T01:59:55.740Z,1005.26
2019-03-29T02:00:55.648Z,1005.23
2019-03-29T02:01:55.565Z,1005.22
2019-03-29T02:02:55.486Z,1005.18
2019-03-29T02:03:55.405Z,1005.19
2019-03-29T02:04:55.319Z,1005.21
2019-03-29T02:05:55.238Z,1005.23
2019-03-29T02:06:55.156Z,1005.21
2019-03-29T02:07:55.074Z,1005.25
2019-03-29T02:08:54.993Z,1005.23
2019-03-29T02:09:54.911Z,1005.23
2019-03-29T02:10:54.830Z,1005.21
2019-03-29T02:11:54.828Z,1005.16
2019-03-29T02:12:54.665Z,1005.19
2019-03-29T02:13:54.585Z,1005.18
2019-03-29T02:14:54.519Z,1005.16
2019-03-29T02:15:54.421Z,1005.19
2019-03-29T02:16:55.195Z,1005.16
2019-03-29T02:17:54.259Z,1005.11
2019-03-29T02:18:54.176Z,1005.13
2019-03-29T02:19:54.095Z,1005.13
2019-03-29T02:20:54.027Z,1005.14
2019-03-29T02:21:53.932Z,1005.15
2019-03-29T02:22:53.850Z,1005.13
2019-03-29T02:23:53.770Z,1005.11
2019-03-29T02:24:53.687Z,1005.11
2019-03-29T02:25:53.607Z,1005.08
2019-03-29T02:26:53.525Z,1005.11
2019-03-29T02:27:53.449Z,1005.11
2019-03-29T02:28:53.362Z,1005.13
2019-03-29T02:29:53.279Z,1005.14
2019-03-29T02:30:53.250Z,1005.11
2019-03-29T02:31:53.116Z,1005.13
2019-03-29T02:32:53.143Z,1005.13
2019-03-29T02:33:52.953Z,1005.11
2019-03-29T02:34:52.873Z,1005.14
2019-03-29T02:35:52.794Z,1005.12
2019-03-29T02:36:52.763Z,1005.12
2019-03-29T02:37:52.625Z,1005.13
2019-03-29T02:38:55.695Z,1005.12
2019-03-29T02:39:54.616Z,1005.10
2019-03-29T02:40:52.399Z,1005.12
2019-03-29T02:41:52.322Z,1005.12
2019-03-29T02:42:52.317Z,1005.09
2019-03-29T02:43:52.136Z,1005.12
2019-03-29T02:44:52.054Z,1005.12
2019-03-29T02:45:51.973Z,1005.08
2019-03-29T02:46:53.566Z,1005.09
2019-03-29T02:47:51.809Z,1005.06
2019-03-29T02:48:51.728Z,1005.07
2019-03-29T02:49:51.647Z,1005.06
2019-03-29T02:50:51.563Z,1005.08
2019-03-29T02:51:51.481Z,1005.06
2019-03-29T02:52:51.401Z,1005.08
2019-03-29T02:53:51.318Z,1005.05
2019-03-29T02:54:51.236Z,1005.01
2019-03-29T02:55:51.154Z,1005.03
2019-03-29T02:56:51.078Z,1005.02
2019-03-29T02:57:51.006Z,1005.03
2019-03-29T02:58:50.908Z,1005.00
2019-03-29T02:59:50.828Z,1005.01
2019-03-29T03:00:50.746Z,1005.01
2019-03-29T03:01:50.678Z,1004.99
2019-03-29T03:02:50.582Z,1005.00
2019-03-29T03:03:50.503Z,1004.97
2019-03-29T03:04:50.419Z,1005.00
2019-03-29T03:05:50.342Z,1005.03
2019-03-29T03:06:50.252Z,1005.02
2019-03-29T03:07:50.174Z,1005.03
2019-03-29T03:08:50.109Z,1005.05
2019-03-29T03:09:50.012Z,1005.04
2019-03-29T03:10:49.928Z,1005.01
2019-03-29T03:11:49.846Z,1005.00
2019-03-29T03:12:49.769Z,1005.03
2019-03-29T03:13:49.691Z,1004.98
2019-03-29T03:14:49.602Z,1004.97
2019-03-29T03:15:49.533Z,1004.96
2019-03-29T03:16:49.436Z,1005.00
2019-03-29T03:17:49.358Z,1004.97
2019-03-29T03:18:49.278Z,1004.92
2019-03-29T03:19:49.196Z,1004.94
2019-03-29T03:20:49.113Z,1004.96
2019-03-29T03:21:49.028Z,1004.94
2019-03-29T03:22:48.944Z,1004.95
2019-03-29T03:23:48.865Z,1004.91
2019-03-29T03:24:48.782Z,1004.96
2019-03-29T03:25:48.700Z,1004.92
2019-03-29T03:26:48.618Z,1004.92
2019-03-29T03:27:48.547Z,1004.91
2019-03-29T03:28:48.453Z,1004.92
2019-03-29T03:29:48.769Z,1004.89
2019-03-29T03:30:48.290Z,1004.89
2019-03-29T03:31:48.221Z,1004.90
2019-03-29T03:32:48.137Z,1004.88
2019-03-29T03:33:48.048Z,1004.88
2019-03-29T03:34:47.984Z,1004.92
2019-03-29T03:35:47.880Z,1004.91
2019-03-29T03:36:47.800Z,1004.87
2019-03-29T03:37:47.724Z,1004.90
2019-03-29T03:38:47.635Z,1004.89
2019-03-29T03:39:47.557Z,1004.90
2019-03-29T03:40:47.477Z,1004.89
2019-03-29T03:41:47.394Z,1004.86
2019-03-29T03:42:47.305Z,1004.89
2019-03-29T03:43:47.223Z,1004.86
2019-03-29T03:44:47.274Z,1004.89
2019-03-29T03:45:47.062Z,1004.88
2019-03-29T03:46:46.980Z,1004.90
2019-03-29T03:47:46.903Z,1004.90
2019-03-29T03:48:46.819Z,1004.89
2019-03-29T03:49:46.737Z,1004.91
2019-03-29T03:50:46.651Z,1004.93
2019-03-29T03:51:46.569Z,1004.92
2019-03-29T03:52:46.514Z,1004.87
2019-03-29T03:53:46.406Z,1004.87
2019-03-29T03:54:46.326Z,1004.87
2019-03-29T03:55:46.249Z,1004.85
2019-03-29T03:56:46.160Z,1004.83
2019-03-29T03:57:46.118Z,1004.85
2019-03-29T03:58:45.995Z,1004.80
2019-03-29T03:59:45.916Z,1004.76
2019-03-29T04:00:45.835Z,1004.82
2019-03-29T04:01:45.749Z,1004.80
2019-03-29T04:02:45.665Z,1004.77
2019-03-29T04:03:45.585Z,1004.79
2019-03-29T04:04:45.516Z,1004.79
2019-03-29T04:05:45.423Z,1004.80
2019-03-29T04:06:45.339Z,1004.80
2019-03-29T04:07:45.263Z,1004.78
2019-03-29T04:08:45.176Z,1004.74
2019-03-29T04:09:49.910Z,1004.69
2019-03-29T04:10:45.011Z,1004.76
2019-03-29T04:11:44.928Z,1004.68
2019-03-29T04:12:44.846Z,1004.66
2019-03-29T04:13:44.789Z,1004.67
2019-03-29T04:14:44.689Z,1004.64
2019-03-29T04:15:44.604Z,1004.65
2019-03-29T04:16:44.623Z,1004.64
2019-03-29T04:17:44.439Z,1004.65
2019-03-29T04:18:44.358Z,1004.63
2019-03-29T04:19:44.271Z,1004.67
2019-03-29T04:20:44.200Z,1004.63
2019-03-29T04:21:44.107Z,1004.65
2019-03-29T04:22:44.028Z,1004.63
2019-03-29T04:23:43.943Z,1004.69
2019-03-29T04:24:43.862Z,1004.65
2019-03-29T04:25:43.780Z,1004.66
2019-03-29T04:26:43.697Z,1004.68
2019-03-29T04:27:43.615Z,1004.65
2019-03-29T04:28:43.533Z,1004.67
2019-03-29T04:29:43.465Z,1004.69
2019-03-29T04:30:43.369Z,1004.68
2019-03-29T04:31:43.289Z,1004.67
2019-03-29T04:32:43.204Z,1004.69
2019-03-29T04:33:43.127Z,1004.68
2019-03-29T04:34:43.052Z,1004.64
2019-03-29T04:35:42.956Z,1004.64
2019-03-29T04:36:42.873Z,1004.65
2019-03-29T04:37:42.798Z,1004.64
2019-03-29T04:38:42.710Z,1004.63
2019-03-29T04:39:42.626Z,1004.64
2019-03-29T04:40:42.546Z,1004.64
2019-03-29T04:41:42.463Z,1004.65
2019-03-29T04:42:42.381Z,1004.67
2019-03-29T04:43:42.303Z,1004.67
2019-03-29T04:44:42.216Z,1004.64
2019-03-29T04:45:42.134Z,1004.65
2019-03-29T04:46:42.050Z,1004.64
2019-03-29T04:47:41.970Z,1004.64
2019-03-29T04:48:42.041Z,1004.63
2019-03-29T04:49:41.803Z,1004.63
2019-03-29T04:50:41.720Z,1004.64
2019-03-29T04:51:41.638Z,1004.62
2019-03-29T04:52:41.888Z,1004.65
2019-03-29T04:53:41.675Z,1004.67
2019-03-29T04:54:41.394Z,1004.66
2019-03-29T04:55:41.309Z,1004.66
2019-03-29T04:56:41.226Z,1004.69
2019-03-29T04:57:41.148Z,1004.69
2019-03-29T04:58:41.060Z,1004.67
2019-03-29T04:59:40.979Z,1004.72
2019-03-29T05:00:40.897Z,1004.72
2019-03-29T05:01:40.814Z,1004.69
2019-03-29T05:02:40.735Z,1004.72
2019-03-29T05:03:40.653Z,1004.67
2019-03-29T05:04:40.566Z,1004.70
2019-03-29T05:05:40.483Z,1004.68
2019-03-29T05:06:40.404Z,1004.76
2019-03-29T05:07:40.318Z,1004.76
2019-03-29T05:08:40.238Z,1004.77
2019-03-29T05:09:40.152Z,1004.78
2019-03-29T05:10:40.070Z,1004.79
2019-03-29T05:11:39.990Z,1004.82
2019-03-29T05:12:39.907Z,1004.80
2019-03-29T05:13:39.824Z,1004.82
2019-03-29T05:14:39.742Z,1004.87
2019-03-29T05:15:39.662Z,1004.84
2019-03-29T05:16:39.580Z,1004.83
2019-03-29T05:17:39.494Z,1004.79
2019-03-29T05:18:39.413Z,1004.82
2019-03-29T05:19:39.331Z,1004.83
2019-03-29T05:20:39.249Z,1004.80
2019-03-29T05:21:39.168Z,1004.77
2019-03-29T05:22:39.084Z,1004.76
2019-03-29T05:23:39.006Z,1004.79
2019-03-29T05:24:38.920Z,1004.80
2019-03-29T05:25:38.839Z,1004.80
2019-03-29T05:26:38.757Z,1004.79
2019-03-29T05:27:38.674Z,1004.80
2019-03-29T05:28:38.593Z,1004.84
2019-03-29T05:29:38.510Z,1004.81
2019-03-29T05:30:38.427Z,1004.84
2019-03-29T05:31:38.346Z,1004.83
2019-03-29T05:32:38.264Z,1004.79
2019-03-29T05:33:38.186Z,1004.80
2019-03-29T05:34:38.100Z,1004.81
2019-03-29T05:35:38.019Z,1004.80
2019-03-29T05:36:37.937Z,1004.80
2019-03-29T05:37:37.858Z,1004.77
2019-03-29T05:38:37.772Z,1004.78
2019-03-29T05:39:37.690Z,1004.78
2019-03-29T05:40:37.608Z,1004.73
2019-03-29T05:41:37.527Z,1004.79
2019-03-29T05:42:37.455Z,1004.76
2019-03-29T05:43:37.362Z,1004.76
2019-03-29T05:44:37.285Z,1004.78
2019-03-29T05:45:37.199Z,1004.76
2019-03-29T05:46:37.117Z,1004.75
2019-03-29T05:47:37.041Z,1004.73
2019-03-29T05:48:36.957Z,1004.75
2019-03-29T05:49:36.874Z,1004.78
2019-03-29T05:50:37.031Z,1004.77
2019-03-29T05:51:36.710Z,1004.79
2019-03-29T05:52:36.629Z,1004.82
2019-03-29T05:53:36.548Z,1004.81
2019-03-29T05:54:36.465Z,1004.82
2019-03-29T05:55:36.384Z,1004.84
2019-03-29T05:56:36.304Z,1004.84
2019-03-29T05:57:36.223Z,1004.89
2019-03-29T05:58:36.141Z,1004.85
2019-03-29T05:59:36.059Z,1004.86
2019-03-29T06:00:35.980Z,1004.87
2019-03-29T06:01:35.897Z,1004.85
2019-03-29T06:02:35.816Z,1004.87
2019-03-29T06:03:35.733Z,1004.86
2019-03-29T06:04:35.662Z,1004.83
2019-03-29T06:05:35.572Z,1004.82
2019-03-29T06:06:35.489Z,1004.82
2019-03-29T06:07:35.410Z,1004.81
2019-03-29T06:08:35.331Z,1004.83
2019-03-29T06:09:35.247Z,1004.89
2019-03-29T06:10:47.905Z,1004.85
2019-03-29T06:11:35.083Z,1004.85
2019-03-29T06:12:35.004Z,1004.85
2019-03-29T06:13:34.921Z,1004.88
2019-03-29T06:14:34.841Z,1004.85
2019-03-29T06:15:34.758Z,1004.89
2019-03-29T06:16:39.283Z,1004.87
2019-03-29T06:17:47.636Z,1004.85
2019-03-29T06:18:34.515Z,1004.87
2019-03-29T06:19:34.433Z,1004.86
2019-03-29T06:20:34.352Z,1004.82
2019-03-29T06:21:34.271Z,1004.88
2019-03-29T06:22:34.188Z,1004.92
2019-03-29T06:23:34.107Z,1004.89
2019-03-29T06:24:34.025Z,1004.86
2019-03-29T06:25:33.946Z,1004.87
2019-03-29T06:26:33.863Z,1004.87
2019-03-29T06:27:33.782Z,1004.86
2019-03-29T06:28:33.701Z,1004.85
2019-03-29T06:29:33.619Z,1004.83
2019-03-29T06:30:33.540Z,1004.81
2019-03-29T06:31:34.267Z,1004.77
2019-03-29T06:32:33.374Z,1004.77
2019-03-29T06:33:33.302Z,1004.77
2019-03-29T06:34:33.212Z,1004.73
2019-03-29T06:35:33.133Z,1004.74
2019-03-29T06:36:33.252Z,1004.73
2019-03-29T06:37:32.971Z,1004.73
2019-03-29T06:38:32.891Z,1004.71
2019-03-29T06:39:32.809Z,1004.75
2019-03-29T06:40:32.728Z,1004.70
2019-03-29T06:41:32.649Z,1004.69
2019-03-29T06:42:32.566Z,1004.67
2019-03-29T06:43:32.487Z,1004.71
2019-03-29T06:44:32.408Z,1004.73
2019-03-29T06:45:32.326Z,1004.69
2019-03-29T06:46:32.243Z,1004.69
2019-03-29T06:47:32.266Z,1004.71
2019-03-29T06:48:32.082Z,1004.69
2019-03-29T06:49:32.005Z,1004.70
2019-03-29T06:50:31.943Z,1004.70
2019-03-29T06:51:31.840Z,1004.68
2019-03-29T06:52:31.761Z,1004.68
2019-03-29T06:53:31.680Z,1004.67
2019-03-29T06:54:31.597Z,1004.66
2019-03-29T06:55:31.519Z,1004.65
2019-03-29T06:56:31.437Z,1004.64
2019-03-29T06:57:31.360Z,1004.67
2019-03-29T06:58:31.277Z,1004.68
2019-03-29T06:59:31.196Z,1004.63
2019-03-29T07:00:31.115Z,1004.67
2019-03-29T07:01:31.037Z,1004.64
2019-03-29T07:02:30.956Z,1004.65
2019-03-29T07:03:30.876Z,1004.61
2019-03-29T07:04:30.796Z,1004.64
2019-03-29T07:05:30.715Z,1004.66
2019-03-29T07:06:30.784Z,1004.61
2019-03-29T07:07:30.554Z,1004.61
2019-03-29T07:08:30.474Z,1004.63
2019-03-29T07:09:30.394Z,1004.61
2019-03-29T07:10:30.315Z,1004.60
2019-03-29T07:11:30.234Z,1004.61
2019-03-29T07:12:30.154Z,1004.63
2019-03-29T07:13:30.075Z,1004.65
2019-03-29T07:14:29.994Z,1004.52
2019-03-29T07:15:29.914Z,1004.51
2019-03-29T07:16:29.834Z,1004.51
2019-03-29T07:17:29.755Z,1004.54
2019-03-29T07:18:29.674Z,1004.52
2019-03-29T07:19:29.595Z,1004.51
2019-03-29T07:20:29.517Z,1004.54
2019-03-29T07:21:29.441Z,1004.55
2019-03-29T07:22:29.355Z,1004.51
2019-03-29T07:23:29.277Z,1004.52
2019-03-29T07:24:29.197Z,1004.51
2019-03-29T07:25:29.118Z,1004.52
2019-03-29T07:26:29.037Z,1004.54
2019-03-29T07:27:28.959Z,1004.55
2019-03-29T07:28:28.878Z,1004.56
2019-03-29T07:29:28.801Z,1004.58
2019-03-29T07:30:28.720Z,1004.60
2019-03-29T07:31:28.643Z,1004.60
2019-03-29T07:32:28.563Z,1004.62
2019-03-29T07:33:28.489Z,1004.53
2019-03-29T07:34:28.403Z,1004.57
2019-03-29T07:35:28.328Z,1004.54
2019-03-29T07:36:28.248Z,1004.53
2019-03-29T07:37:28.169Z,1004.55
2019-03-29T07:38:28.092Z,1004.54
2019-03-29T07:39:28.010Z,1004.49
2019-03-29T07:40:27.935Z,1004.52
2019-03-29T07:41:32.174Z,1004.45
2019-03-29T07:45:28.436Z,1004.48
2019-03-29T07:46:28.356Z,1004.45
2019-03-29T07:48:45.231Z,1004.42
2019-03-29T07:49:45.126Z,1004.45
2019-03-29T07:50:45.046Z,1004.43
2019-03-29T07:51:44.967Z,1004.40
2019-03-29T07:53:32.373Z,1004.43
2019-03-29T07:54:34.916Z,1004.42
2019-03-29T07:55:32.216Z,1004.42
2019-03-29T07:56:32.138Z,1004.45
2019-03-29T07:57:32.060Z,1004.48
2019-03-29T07:58:31.982Z,1004.46
2019-03-29T08:00:34.424Z,1004.48
2019-03-29T08:01:37.145Z,1004.48
2019-03-29T08:03:26.734Z,1004.47
2019-03-29T08:04:26.660Z,1004.43
2019-03-29T08:05:26.578Z,1004.48
2019-03-29T08:06:26.499Z,1004.46
2019-03-29T08:07:27.693Z,1004.46
2019-03-29T08:08:32.034Z,1004.47
2019-03-29T08:10:24.168Z,1004.48
2019-03-29T08:11:25.569Z,1004.49
2019-03-29T08:12:13.736Z,1004.45
2019-03-29T08:13:13.569Z,1004.48
2019-03-29T08:14:15.045Z,1004.48
2019-03-29T08:15:13.366Z,1004.47
2019-03-29T08:16:13.288Z,1004.50
2019-03-29T08:17:13.212Z,1004.46
2019-03-29T08:18:13.135Z,1004.48
2019-03-29T08:19:13.058Z,1004.45
2019-03-29T08:20:38.892Z,1004.45
2019-03-29T08:21:12.905Z,1004.47
2019-03-29T08:22:12.829Z,1004.43
2019-03-29T08:23:12.752Z,1004.44
2019-03-29T08:24:12.675Z,1004.43
2019-03-29T08:25:12.598Z,1004.43
2019-03-29T08:26:12.525Z,1004.45
2019-03-29T08:27:12.449Z,1004.45
2019-03-29T08:28:12.369Z,1004.39
2019-03-29T08:29:12.293Z,1004.42
2019-03-29T08:30:12.217Z,1004.41
2019-03-29T08:31:12.143Z,1004.45
2019-03-29T08:32:12.064Z,1004.40
2019-03-29T08:33:11.989Z,1004.44
2019-03-29T08:34:11.912Z,1004.43
2019-03-29T08:35:11.837Z,1004.41
2019-03-29T08:36:11.759Z,1004.45
2019-03-29T08:37:11.714Z,1004.42
2019-03-29T08:38:11.608Z,1004.38
2019-03-29T08:39:11.532Z,1004.40
2019-03-29T08:40:11.455Z,1004.38
2019-03-29T08:41:11.381Z,1004.43
2019-03-29T08:50:36.452Z,1004.39
2019-03-29T08:51:36.375Z,1004.37
2019-03-29T08:52:36.299Z,1004.37
2019-03-29T08:53:36.423Z,1004.37
2019-03-29T08:54:36.477Z,1004.39
2019-03-29T09:37:34.324Z,1004.44
2019-03-29T09:41:44.918Z,1004.33
2019-03-29T09:42:44.840Z,1004.37
2019-03-29T09:43:44.812Z,1004.34
2019-03-29T09:44:44.688Z,1004.33
2019-03-29T09:45:44.945Z,1004.31
2019-03-29T09:46:44.536Z,1004.29
2019-03-29T09:47:44.561Z,1004.29
2019-03-29T09:48:44.387Z,1004.27
2019-03-29T09:49:44.341Z,1004.24
2019-03-29T10:19:12.289Z,1004.15
2019-03-29T10:20:12.212Z,1004.09
2019-03-29T10:21:12.138Z,1004.12
2019-03-29T10:22:12.064Z,1004.17
2019-03-29T10:33:02.473Z,1004.02
2019-03-29T10:39:05.356Z,1004.03
2019-03-29T10:40:05.281Z,1003.97
2019-03-29T10:41:05.206Z,1003.95
2019-03-29T10:42:05.134Z,1003.99
2019-03-29T10:43:05.061Z,1004.01
2019-03-29T10:44:04.990Z,1003.99
2019-03-29T10:45:04.916Z,1004.01
2019-03-29T10:46:04.843Z,1004.07
2019-03-29T10:47:04.767Z,1004.05
2019-03-29T10:48:04.693Z,1003.93
2019-03-29T10:49:04.623Z,1003.88
2019-03-29T10:50:04.550Z,1003.86
2019-03-29T10:51:07.932Z,1003.90
2019-03-29T10:52:04.403Z,1003.91
2019-03-29T10:53:04.335Z,1003.92
2019-03-29T10:54:04.259Z,1003.93
2019-03-29T10:55:04.238Z,1003.91
2019-03-29T10:56:06.737Z,1003.86
2019-03-29T10:57:04.045Z,1003.78
2019-03-29T10:58:03.973Z,1003.80
2019-03-29T10:59:03.900Z,1003.88
2019-03-29T11:00:03.831Z,1003.86
2019-03-29T11:01:03.759Z,1003.87
2019-03-29T11:02:03.690Z,1003.85
2019-03-29T11:03:03.615Z,1003.95
2019-03-29T11:04:03.543Z,1003.92
2019-03-29T11:05:03.475Z,1003.88
2019-03-29T11:06:03.403Z,1003.87
2019-03-29T11:07:03.333Z,1003.85
2019-03-29T11:08:03.288Z,1003.87
2019-03-29T11:09:03.190Z,1003.90
2019-03-29T11:10:03.120Z,1003.90
2019-03-29T11:11:03.050Z,1003.93
2019-03-29T11:12:02.978Z,1003.92
2019-03-29T11:13:12.784Z,1003.92
2019-03-29T11:14:02.874Z,1003.94
2019-03-29T11:15:06.370Z,1004.04
2019-03-29T11:16:02.698Z,1003.95
2019-03-29T11:17:02.656Z,1003.86
2019-03-29T11:18:02.559Z,1003.88
2019-03-29T11:19:02.492Z,1003.85
2019-03-29T11:20:02.420Z,1003.87
2019-03-29T11:21:02.351Z,1003.90
2019-03-29T11:22:02.282Z,1003.91
2019-03-29T11:23:02.214Z,1003.81
2019-03-29T11:24:02.146Z,1003.83
2019-03-29T11:25:02.080Z,1003.88
2019-03-29T11:26:02.033Z,1003.85
2019-03-29T11:27:01.940Z,1003.92
2019-03-29T11:28:01.870Z,1003.93
2019-03-29T11:29:01.803Z,1003.81
2019-03-29T11:30:01.734Z,1003.77
2019-03-29T11:31:01.664Z,1003.85
2019-03-29T11:32:01.598Z,1003.84
2019-03-29T11:33:01.528Z,1004.06
2019-03-29T11:34:01.461Z,1003.98
2019-03-29T11:35:01.397Z,1003.80
2019-03-29T11:36:01.324Z,1003.79
2019-03-29T11:37:01.257Z,1003.94
2019-03-29T11:38:01.192Z,1003.95
2019-03-29T11:39:01.122Z,1004.00
2019-03-29T11:40:01.055Z,1003.93
2019-03-29T11:41:00.988Z,1004.00
2019-03-29T11:42:03.473Z,1003.78
2019-03-29T11:43:03.476Z,1003.90
2019-03-29T11:44:00.789Z,1003.80
2019-03-29T11:45:00.723Z,1003.85
2019-03-29T11:46:00.662Z,1003.87
2019-03-29T11:47:00.591Z,1003.92
2019-03-29T11:48:08.548Z,1003.82
2019-03-29T11:49:00.462Z,1003.82
2019-03-29T11:50:00.397Z,1003.58
2019-03-29T11:51:00.380Z,1003.74
2019-03-29T11:52:00.292Z,1003.86
2019-03-29T11:53:01.217Z,1003.79
2019-03-29T11:54:00.168Z,1003.78
2019-03-29T11:55:00.164Z,1003.74
2019-03-29T11:56:00.016Z,1003.72
2019-03-29T11:56:59.949Z,1003.64
2019-03-29T11:58:01.097Z,1003.69
2019-03-29T11:58:59.847Z,1003.72
2019-03-29T11:59:59.757Z,1003.68
2019-03-29T12:00:59.694Z,1003.56
2019-03-29T12:01:59.658Z,1003.21
2019-03-29T12:03:08.847Z,1003.23
2019-03-29T12:03:59.504Z,1003.71
2019-03-29T12:04:59.475Z,1003.75
2019-03-29T12:05:59.405Z,1003.69
2019-03-29T12:06:59.315Z,1003.68
2019-03-29T12:07:59.252Z,1003.66
2019-03-29T12:12:45.212Z,1003.70
2019-03-29T12:17:10.524Z,1003.72
2019-03-29T12:19:54.100Z,1003.84
2019-03-29T12:24:48.255Z,1003.63
2019-03-29T12:25:49.216Z,1003.68
2019-03-29T12:55:58.674Z,1003.37
2019-03-29T12:56:58.609Z,1003.28
2019-03-29T12:57:58.548Z,1003.23
2019-03-29T13:01:23.526Z,1003.27
2019-03-29T13:02:26.087Z,1003.21
2019-03-29T13:30:10.169Z,1003.13
2019-03-29T13:31:08.892Z,1003.19
2019-03-29T13:32:11.452Z,1003.23
2019-03-29T13:33:08.769Z,1003.27
2019-03-29T13:36:31.206Z,1003.33
2019-03-29T13:37:31.143Z,1003.45
2019-03-29T13:38:31.080Z,1003.43
2019-03-29T13:40:53.552Z,1003.52
2019-03-29T13:41:53.494Z,1003.45
2019-03-29T13:42:53.428Z,1003.38
2019-03-29T13:43:53.364Z,1003.37
2019-03-29T13:44:53.308Z,1003.32
2019-03-29T13:51:50.295Z,1003.02
2019-03-29T14:14:53.683Z,1002.28
2019-03-29T15:17:38.102Z,1000.84
2019-03-29T15:18:38.035Z,1000.84
2019-03-29T15:20:30.471Z,1000.83
2019-03-29T15:21:30.437Z,1000.86
2019-03-29T15:24:56.016Z,1000.81
2019-03-29T15:25:55.950Z,1000.76
2019-03-29T15:26:55.885Z,1000.76
2019-03-29T15:27:55.819Z,1000.75
2019-03-29T15:28:55.754Z,1000.73
2019-03-29T15:29:55.688Z,1000.73
2019-03-29T15:30:55.651Z,1000.72
2019-03-29T15:31:55.559Z,1000.67
2019-03-29T15:35:31.281Z,1000.71
2019-03-29T15:36:31.107Z,1000.70
2019-03-29T15:37:31.047Z,1000.69
2019-03-29T15:38:30.978Z,1000.70
2019-03-29T15:39:30.916Z,1000.71
2019-03-29T15:40:30.848Z,1000.69
2019-03-29T15:41:30.783Z,1000.73
2019-03-29T15:42:30.719Z,1000.74
2019-03-29T15:43:31.259Z,1000.72
2019-03-29T15:44:30.588Z,1000.71
2019-03-29T15:45:30.523Z,1000.71
2019-03-29T15:46:30.458Z,1000.74
2019-03-29T15:47:30.392Z,1000.67
2019-03-29T15:48:30.328Z,1000.67
2019-03-29T15:49:30.262Z,1000.63
2019-03-29T15:50:32.818Z,1000.62
2019-03-29T15:51:30.132Z,1000.61
2019-03-29T16:09:31.260Z,1000.37
2019-03-29T16:10:31.191Z,1000.41
2019-03-29T16:11:31.126Z,1000.46
2019-03-29T16:12:31.054Z,1000.45
2019-03-29T16:13:30.985Z,1000.44
2019-03-29T16:14:30.946Z,1000.50
2019-03-29T16:15:35.134Z,1000.46
2019-03-29T16:16:30.781Z,1000.47
2019-03-29T16:17:30.714Z,1000.45
2019-03-29T16:18:30.645Z,1000.42
2019-03-29T16:19:30.581Z,1000.43
2019-03-29T16:20:30.535Z,1000.45
2019-03-29T16:21:30.441Z,1000.41
2019-03-29T16:22:30.373Z,1000.40
2019-03-29T16:24:52.830Z,1000.38
2019-03-29T16:25:52.757Z,1000.40
2019-03-29T16:26:52.939Z,1000.36
2019-03-29T16:30:18.280Z,1000.28
2019-03-29T16:31:18.211Z,1000.27
2019-03-29T16:33:58.133Z,1000.31
2019-03-29T16:34:58.062Z,1000.27
2019-03-29T16:35:57.990Z,1000.29
2019-03-29T16:36:57.921Z,1000.23
2019-03-29T16:37:57.946Z,1000.24
2019-03-29T16:38:57.782Z,1000.20
2019-03-29T16:40:45.209Z,1000.22
2019-03-29T16:41:45.131Z,1000.17
2019-03-29T16:42:45.059Z,1000.18
2019-03-29T16:43:44.992Z,1000.17
2019-03-29T16:44:44.923Z,1000.16
2019-03-29T16:45:48.229Z,1000.18
2019-03-29T16:46:44.877Z,1000.18
2019-03-29T16:47:44.706Z,1000.18
2019-03-29T16:48:44.634Z,1000.17
2019-03-29T16:49:44.566Z,1000.16
2019-03-29T16:50:44.495Z,1000.15
2019-03-29T16:51:44.422Z,1000.15
2019-03-29T16:52:45.160Z,1000.13
2019-03-29T16:59:51.278Z,1000.12
2019-03-29T17:00:51.203Z,1000.09
2019-03-29T17:01:51.548Z,1000.06
2019-03-29T17:02:51.059Z,1000.08
2019-03-29T17:03:50.986Z,1000.08
2019-03-29T17:05:48.814Z,1000.03
2019-03-29T17:06:48.340Z,1000.07
2019-03-29T17:07:48.268Z,1000.06
2019-03-29T17:08:48.197Z,1000.05
2019-03-29T17:09:48.122Z,1000.04
2019-03-29T17:10:48.051Z,1000.02
2019-03-29T17:11:47.978Z,1000.02
2019-03-29T17:12:47.906Z,1000.01
2019-03-29T17:13:47.835Z,1000.05
2019-03-29T17:14:47.764Z,1000.05
2019-03-29T17:16:00.757Z,1000.04
2019-03-29T17:16:47.618Z,1000.04
2019-03-29T17:19:10.057Z,1000.07
2019-03-29T17:20:09.985Z,1000.00
2019-03-29T17:21:10.049Z,1000.04
2019-03-29T17:22:09.839Z,1000.04
2019-03-29T17:23:09.767Z,1000.05